Colfax, Kentucky
Current Conditions -  °F | °C
As of 4:10 PM on Friday 24 Oct 2014 (Local Time) from KSYM Reporting Station
Haze Haze  
Wind Chill: 64°   Ceiling: Unl
Heat Index: 64°   Visibility: 3mi
Dew Point: 43°   Wind: 6mph
Humidity: 45%   Direction: NA
Pressure: 30.08"   Gusts: NA
Location:  38.2838°N, 83.678°W
Report Text: KSYM 242010Z AUTO VRB05KT 3SM HZ CLR 18/06 A3008 RMK AO2
Loading
Personal Weather Stations






























Interactive Weather Map
Tropical Storm Tracking
New forecast layout! Learn more

10-Day Weather Forecast

Advertisements
Track Severe Weather on mobile